Time;durP1;ratioP1;P1;durP2;ratioP2;P2;SDS_P1;SDS_P2;PMS_P1;PMS_P2;Temp;Humidity;BMP_temperature;BMP_pressure;BME280_temperature;BME280_humidity;BME280_pressure;Samples;Min_cycle;Max_cycle;Signal;HPM_P1;HPM_P2
2021/04/09 00:00:56;;;;;;;8.35;4.55;;;21.50;29.70;;;;;;4993000;28;20065;-75
2021/04/09 00:03:21;;;;;;;9.60;4.45;;;21.60;29.20;;;;;;4993108;28;20044;-75
2021/04/09 00:05:47;;;;;;;8.05;4.22;;;21.60;29.20;;;;;;4992975;28;20041;-75
2021/04/09 00:08:12;;;;;;;13.02;5.53;;;21.60;29.20;;;;;;4993270;28;20105;-75
2021/04/09 00:10:39;;;;;;;11.00;4.82;;;21.60;29.10;;;;;;4993367;28;20030;-75
2021/04/09 00:13:05;;;;;;;11.35;4.90;;;21.60;29.10;;;;;;4974924;28;20042;-76
2021/04/09 00:15:31;;;;;;;10.43;4.85;;;21.60;29.10;;;;;;4985589;28;20412;-76
2021/04/09 00:17:56;;;;;;;8.68;5.00;;;21.50;29.10;;;;;;4979684;28;20027;-76
2021/04/09 00:20:24;;;;;;;11.82;4.78;;;21.50;29.60;;;;;;4974990;28;20050;-76
2021/04/09 00:22:49;;;;;;;7.90;5.00;;;21.50;29.10;;;;;;4945231;28;20041;-75
2021/04/09 00:25:15;;;;;;;10.32;5.18;;;21.50;29.20;;;;;;4975661;28;20098;-70
2021/04/09 00:27:41;;;;;;;9.00;4.72;;;21.50;29.10;;;;;;4974676;28;20037;-69
2021/04/09 00:30:08;;;;;;;10.13;5.10;;;21.50;29.20;;;;;;4976197;28;20398;-69
2021/04/09 00:32:33;;;;;;;10.05;5.00;;;21.50;29.20;;;;;;4975116;28;20034;-70
2021/04/09 00:34:59;;;;;;;8.75;4.75;;;21.40;29.20;;;;;;4992670;28;20553;-70
2021/04/09 00:37:24;;;;;;;8.18;5.00;;;21.50;29.20;;;;;;4975286;28;20038;-69
2021/04/09 00:39:50;;;;;;;9.27;4.90;;;21.50;29.20;;;;;;4974920;28;20084;-69
2021/04/09 00:42:20;;;;;;;9.50;4.90;;;21.50;29.20;;;;;;4993226;28;20041;-70
2021/04/09 00:44:45;;;;;;;12.40;5.15;;;21.50;29.20;;;;;;4975351;28;20030;-69
2021/04/09 00:47:11;;;;;;;8.35;4.25;;;21.40;29.20;;;;;;4974767;28;20096;-69
2021/04/09 00:49:38;;;;;;;11.70;4.95;;;21.40;29.20;;;;;;4992525;28;20469;-69
2021/04/09 00:52:04;;;;;;;10.93;4.50;;;21.40;29.20;;;;;;4979213;28;20038;-69
2021/04/09 00:54:33;;;;;;;9.65;5.28;;;21.40;29.20;;;;;;4979200;28;20026;-70
2021/04/09 00:56:59;;;;;;;11.93;5.18;;;21.40;29.80;;;;;;4996866;28;20022;-69
2021/04/09 00:59:25;;;;;;;10.30;5.03;;;21.40;29.30;;;;;;4963108;28;20490;-70
2021/04/09 01:01:50;;;;;;;11.25;5.03;;;21.30;29.20;;;;;;4978546;28;20031;-69
2021/04/09 01:04:16;;;;;;;8.75;4.70;;;21.40;29.30;;;;;;4978954;28;20026;-75
2021/04/09 01:06:42;;;;;;;12.73;4.72;;;21.30;29.20;;;;;;4996434;28;20406;-76
2021/04/09 01:09:07;;;;;;;10.18;4.60;;;21.30;29.20;;;;;;4996671;28;20498;-76
2021/04/09 01:11:33;;;;;;;11.10;4.55;;;21.30;29.80;;;;;;4996698;28;20034;-75
2021/04/09 01:13:58;;;;;;;9.75;3.85;;;21.30;29.30;;;;;;4996747;28;20034;-76
2021/04/09 01:16:49;;;;;;;10.90;4.78;;;21.30;29.30;;;;;;4995331;28;20038;-76
2021/04/09 01:19:56;;;;;;;9.25;4.60;;;21.30;29.30;;;;;;4979123;28;20058;-76
2021/04/09 01:22:22;;;;;;;;;;;21.30;29.30;;;;;;4929998;29;20048;-76
2021/04/09 01:25:12;;;;;;;10.45;4.80;;;21.20;29.30;;;;;;4934538;29;19998;-77
2021/04/09 01:27:50;;;;;;;10.00;5.38;;;21.20;29.30;;;;;;4917703;29;20028;-77
2021/04/09 01:30:23;;;;;;;12.20;5.05;;;21.20;29.30;;;;;;4927336;29;20075;-77
2021/04/09 01:32:49;;;;;;;9.82;4.90;;;21.20;29.30;;;;;;4900533;29;20052;-77
2021/04/09 01:35:15;;;;;;;10.63;4.72;;;21.20;29.30;;;;;;4931745;29;20507;-77
2021/04/09 01:37:42;;;;;;;9.48;4.70;;;21.20;29.40;;;;;;4935827;29;20095;-77
2021/04/09 01:40:19;;;;;;;12.00;4.65;;;21.20;29.40;;;;;;4923958;29;20059;-77
2021/04/09 01:42:56;;;;;;;9.50;4.72;;;21.10;29.40;;;;;;4934915;29;20115;-77
2021/04/09 01:45:22;;;;;;;12.18;4.97;;;21.20;29.30;;;;;;4928840;29;20040;-77
2021/04/09 01:48:00;;;;;;;8.43;4.55;;;21.20;29.40;;;;;;4934438;29;20451;-77
2021/04/09 01:50:27;;;;;;;8.30;3.72;;;21.10;29.30;;;;;;4888654;29;20529;-76
2021/04/09 01:52:52;;;;;;;8.68;4.35;;;21.10;29.30;;;;;;4932942;29;20111;-76
2021/04/09 01:55:18;;;;;;;9.38;3.72;;;21.10;29.30;;;;;;4922353;29;20131;-75
2021/04/09 01:57:44;;;;;;;8.65;4.10;;;21.10;29.30;;;;;;4919685;28;20431;-78
2021/04/09 02:00:15;;;;;;;8.05;4.40;;;21.20;29.30;;;;;;5002488;28;20026;-78
2021/04/09 02:02:45;;;;;;;10.63;4.82;;;21.20;29.30;;;;;;4978117;28;20348;-78
2021/04/09 02:05:14;;;;;;;8.40;4.43;;;21.20;29.30;;;;;;4989783;28;20074;-78
2021/04/09 02:07:41;;;;;;;8.07;4.53;;;21.20;29.30;;;;;;4997976;28;20021;-77
2021/04/09 02:10:06;;;;;;;8.18;4.35;;;21.20;29.30;;;;;;4977636;28;20029;-70
2021/04/09 02:12:44;;;;;;;8.15;4.20;;;21.20;29.30;;;;;;4962017;28;20030;-70
2021/04/09 02:15:17;;;;;;;8.75;4.50;;;21.20;29.70;;;;;;4978232;28;20057;-70
2021/04/09 02:17:42;;;;;;;8.80;4.40;;;21.20;29.30;;;;;;4999604;28;20383;-70
2021/04/09 02:20:13;;;;;;;9.02;4.38;;;21.20;29.20;;;;;;4995118;28;20031;-70
2021/04/09 02:22:39;;;;;;;7.03;3.97;;;21.20;29.30;;;;;;4977996;28;20483;-69
2021/04/09 02:25:05;;;;;;;9.70;3.85;;;21.20;29.20;;;;;;4978158;28;20030;-70
2021/04/09 02:27:31;;;;;;;7.97;4.28;;;21.20;29.20;;;;;;4961818;28;20060;-69
2021/04/09 02:29:56;;;;;;;6.45;3.80;;;21.20;29.20;;;;;;4977389;28;20028;-70
2021/04/09 02:32:22;;;;;;;7.10;3.92;;;21.10;29.20;;;;;;4966485;28;20038;-69
2021/04/09 02:34:48;;;;;;;8.93;4.10;;;21.10;29.20;;;;;;4974878;28;20484;-69
2021/04/09 02:37:13;;;;;;;7.85;4.22;;;21.10;29.20;;;;;;4964947;28;20050;-69
2021/04/09 02:39:53;;;;;;;13.60;4.68;;;21.10;29.30;;;;;;4977235;28;20022;-69
2021/04/09 02:42:19;;;;;;;8.27;4.13;;;21.10;29.70;;;;;;4970201;28;20030;-69
2021/04/09 02:44:44;;;;;;;7.35;4.18;;;21.10;29.20;;;;;;4995066;28;20033;-70
2021/04/09 02:47:27;;;;;;;11.18;4.90;;;21.10;29.20;;;;;;4976320;28;20054;-69
2021/04/09 02:50:04;;;;;;;8.50;4.35;;;21.10;29.20;;;;;;4960890;28;20030;-70
2021/04/09 02:52:34;;;;;;;9.57;4.13;;;21.10;29.30;;;;;;4978383;28;20041;-69
2021/04/09 02:55:01;;;;;;;6.07;3.83;;;21.10;29.40;;;;;;4977117;28;20501;-69
2021/04/09 02:57:27;;;;;;;6.07;3.60;;;21.00;29.30;;;;;;4976892;28;20034;-69
2021/04/09 02:59:54;;;;;;;8.13;3.55;;;21.00;29.30;;;;;;4976999;28;20049;-69
2021/04/09 03:02:20;;;;;;;9.00;3.70;;;21.00;29.40;;;;;;4963706;28;20039;-69
2021/04/09 03:04:46;;;;;;;7.82;4.13;;;21.00;29.40;;;;;;4981267;28;20549;-69
2021/04/09 03:07:11;;;;;;;6.90;3.85;;;21.00;29.40;;;;;;4961623;28;20482;-69
2021/04/09 03:09:38;;;;;;;9.55;4.13;;;21.00;29.40;;;;;;4994384;28;20026;-69
2021/04/09 03:12:14;;;;;;;9.70;3.92;;;21.00;29.40;;;;;;4975654;28;20034;-69
2021/04/09 03:14:41;;;;;;;7.97;3.90;;;20.90;29.40;;;;;;4976599;28;20110;-70
2021/04/09 03:17:08;;;;;;;9.15;3.97;;;20.90;29.40;;;;;;4976477;28;20449;-70
2021/04/09 03:19:33;;;;;;;6.43;3.70;;;21.00;29.40;;;;;;4971993;28;20034;-70
2021/04/09 03:21:59;;;;;;;6.03;3.47;;;20.90;29.40;;;;;;4994248;28;20052;-70
2021/04/09 03:24:24;;;;;;;9.20;4.03;;;20.90;29.40;;;;;;4957018;28;20023;-69
2021/04/09 03:26:50;;;;;;;7.18;3.90;;;20.90;29.40;;;;;;4976078;28;20042;-69
2021/04/09 03:29:15;;;;;;;6.00;3.10;;;20.90;29.40;;;;;;4976417;28;20022;-69
2021/04/09 03:31:41;;;;;;;6.35;3.60;;;20.90;29.50;;;;;;4993543;28;20537;-70
2021/04/09 03:34:07;;;;;;;6.80;3.60;;;20.80;29.40;;;;;;4975907;28;20522;-69
2021/04/09 03:36:32;;;;;;;8.32;3.60;;;20.80;29.40;;;;;;4993753;28;20050;-69
2021/04/09 03:39:04;;;;;;;6.43;3.40;;;20.80;29.40;;;;;;4976113;28;20038;-70
2021/04/09 03:41:29;;;;;;;11.13;3.80;;;20.80;29.50;;;;;;4975970;28;20104;-70
2021/04/09 03:43:55;;;;;;;8.70;3.67;;;20.80;29.50;;;;;;4993525;28;20101;-70
2021/04/09 03:46:20;;;;;;;5.82;3.67;;;20.80;29.50;;;;;;4992572;28;20410;-71
2021/04/09 03:48:46;;;;;;;6.88;3.33;;;20.80;29.90;;;;;;4993274;28;20073;-70
2021/04/09 03:51:27;;;;;;;7.13;3.53;;;20.80;29.50;;;;;;4993288;28;20045;-71
2021/04/09 03:53:52;;;;;;;6.60;3.70;;;20.80;29.40;;;;;;4975705;28;20387;-70
2021/04/09 03:56:30;;;;;;;6.22;3.67;;;20.80;29.40;;;;;;4976396;28;20037;-69
2021/04/09 03:58:56;;;;;;;6.85;3.38;;;20.90;29.40;;;;;;4993466;28;20026;-70
2021/04/09 04:01:26;;;;;;;0.10;0.10;;;20.90;29.40;;;;;;4993137;28;20030;-69
2021/04/09 04:03:51;;;;;;;0.38;0.38;;;20.90;29.40;;;;;;4959360;28;20121;-69
2021/04/09 04:06:17;;;;;;;0.73;0.45;;;20.90;29.40;;;;;;4975495;28;20491;-69
2021/04/09 04:08:42;;;;;;;0.30;0.30;;;20.90;29.40;;;;;;4995970;28;20030;-70
2021/04/09 04:11:08;;;;;;;0.47;0.20;;;20.90;29.40;;;;;;4975727;28;20113;-70
2021/04/09 04:13:33;;;;;;;0.20;0.20;;;20.80;29.30;;;;;;4975818;28;20031;-69
2021/04/09 04:15:59;;;;;;;0.80;0.40;;;20.90;29.40;;;;;;4975331;28;20034;-69
2021/04/09 04:18:25;;;;;;;0.47;0.32;;;20.80;29.30;;;;;;4992241;28;20441;-69
2021/04/09 04:20:50;;;;;;;0.55;0.20;;;20.80;29.40;;;;;;4984346;28;20044;-69
2021/04/09 04:23:16;;;;;;;0.25;0.25;;;20.90;29.40;;;;;;4993326;28;20058;-69
2021/04/09 04:25:45;;;;;;;0.20;0.20;;;20.80;29.40;;;;;;4990538;28;20030;-69
2021/04/09 04:28:10;;;;;;;0.03;0.03;;;20.80;29.40;;;;;;4985074;28;20032;-69
2021/04/09 04:30:36;;;;;;;0.10;0.10;;;20.80;29.40;;;;;;4993251;28;20038;-69
2021/04/09 04:33:02;;;;;;;0.30;0.20;;;20.80;29.50;;;;;;4992734;28;20026;-69
2021/04/09 04:35:27;;;;;;;0.65;0.20;;;20.80;29.50;;;;;;4958718;28;20038;-69
2021/04/09 04:37:53;;;;;;;0.47;0.20;;;20.80;29.50;;;;;;4992301;28;20100;-69
2021/04/09 04:40:18;;;;;;;0.25;0.25;;;20.80;29.50;;;;;;5007248;28;20042;-69
2021/04/09 04:42:44;;;;;;;0.85;0.28;;;20.70;29.50;;;;;;4992414;28;20037;-69
2021/04/09 04:45:10;;;;;;;0.17;0.10;;;20.70;29.50;;;;;;4975248;28;20027;-69
2021/04/09 04:47:36;;;;;;;0.10;0.10;;;20.70;29.50;;;;;;4991725;28;20029;-69
2021/04/09 04:50:02;;;;;;;0.90;0.20;;;20.70;29.50;;;;;;4992041;28;20023;-69
2021/04/09 04:52:27;;;;;;;0.00;0.00;;;20.70;29.50;;;;;;4974153;28;20058;-69
2021/04/09 04:54:53;;;;;;;0.63;0.20;;;20.70;29.60;;;;;;4990333;28;20156;-69
2021/04/09 04:57:19;;;;;;;0.90;0.47;;;20.70;29.50;;;;;;4992769;28;20027;-69
2021/04/09 04:59:44;;;;;;;10.02;0.52;;;20.70;29.60;;;;;;4991361;28;20081;-69
2021/04/09 05:02:10;;;;;;;0.10;0.10;;;20.70;29.60;;;;;;4989400;28;20030;-69
2021/04/09 05:04:35;;;;;;;0.15;0.15;;;20.70;29.60;;;;;;4992492;28;20027;-69
2021/04/09 05:07:01;;;;;;;0.20;0.20;;;20.60;29.60;;;;;;4978117;28;20034;-69
2021/04/09 05:09:26;;;;;;;0.10;0.10;;;20.70;29.60;;;;;;4991978;28;20034;-69
2021/04/09 05:11:52;;;;;;;0.10;0.10;;;20.70;29.60;;;;;;4992373;28;20034;-69
2021/04/09 05:14:18;;;;;;;0.13;0.13;;;20.70;29.60;;;;;;5007974;28;20034;-69
2021/04/09 05:16:43;;;;;;;0.38;0.38;;;20.70;29.70;;;;;;4992002;28;20057;-69
2021/04/09 05:19:10;;;;;;;0.20;0.20;;;20.70;29.70;;;;;;4974883;28;20034;-69
2021/04/09 05:21:35;;;;;;;0.15;0.15;;;20.70;29.80;;;;;;4992299;28;20065;-69
2021/04/09 05:24:01;;;;;;;0.85;0.50;;;20.70;29.70;;;;;;5007425;28;20026;-69
2021/04/09 05:26:26;;;;;;;0.35;0.20;;;20.80;29.70;;;;;;5006836;28;20050;-69
2021/04/09 05:29:45;;;;;;;0.25;0.25;;;20.90;29.60;;;;;;4974734;28;20526;-69
2021/04/09 05:32:11;;;;;;;1.00;0.40;;;21.00;29.60;;;;;;4976128;28;20038;-69
2021/04/09 05:34:37;;;;;;;0.30;0.30;;;21.10;29.50;;;;;;4957880;28;20425;-69
2021/04/09 05:37:03;;;;;;;0.52;0.30;;;21.10;29.50;;;;;;4976273;28;20039;-69
2021/04/09 05:39:28;;;;;;;0.47;0.30;;;21.20;29.90;;;;;;4973976;28;20074;-68
2021/04/09 05:41:54;;;;;;;0.20;0.20;;;21.30;29.40;;;;;;4995781;28;20034;-69
2021/04/09 05:44:20;;;;;;;4.57;0.38;;;21.30;29.30;;;;;;4978195;28;20048;-69
2021/04/09 05:46:45;;;;;;;0.30;0.30;;;21.40;29.30;;;;;;4978113;28;20038;-69
2021/04/09 05:49:11;;;;;;;0.43;0.43;;;21.40;29.30;;;;;;4995931;28;20057;-69
2021/04/09 05:51:37;;;;;;;0.13;0.13;;;21.50;29.20;;;;;;4977711;28;20104;-69
2021/04/09 05:54:02;;;;;;;0.20;0.10;;;21.50;29.20;;;;;;4977510;28;20462;-69
2021/04/09 05:56:28;;;;;;;0.28;0.28;;;21.60;29.20;;;;;;5013821;28;20054;-70
2021/04/09 05:58:54;;;;;;;0.10;0.10;;;21.60;29.10;;;;;;4978478;28;20030;-76
2021/04/09 06:01:19;;;;;;;0.10;0.10;;;21.60;29.10;;;;;;4984843;28;20038;-75
2021/04/09 06:03:47;;;;;;;1.20;0.20;;;21.70;29.60;;;;;;4994513;28;20060;-76
2021/04/09 06:06:12;;;;;;;0.80;0.20;;;21.70;29.00;;;;;;4983475;28;20022;-75
2021/04/09 06:08:38;;;;;;;0.38;0.28;;;21.90;28.90;;;;;;4976939;28;20026;-76
2021/04/09 06:11:03;;;;;;;0.10;0.10;;;22.00;28.90;;;;;;4976400;28;20121;-76
2021/04/09 06:13:47;;;;;;;0.03;0.03;;;22.00;28.80;;;;;;4989263;28;20027;-76
2021/04/09 06:16:13;;;;;;;0.17;0.15;;;22.10;28.80;;;;;;4986843;28;20034;-76
2021/04/09 06:18:38;;;;;;;16.08;0.57;;;22.10;28.70;;;;;;4995614;28;20040;-75
2021/04/09 06:21:04;;;;;;;5.93;0.20;;;22.10;28.70;;;;;;4995455;28;20034;-75
2021/04/09 06:23:33;;;;;;;0.45;0.13;;;22.10;28.70;;;;;;4995475;28;20413;-75
2021/04/09 06:25:58;;;;;;;0.17;0.17;;;22.10;28.70;;;;;;4977596;28;20062;-74
2021/04/09 06:28:24;;;;;;;1.73;0.47;;;22.10;28.70;;;;;;4976371;28;20050;-77
2021/04/09 06:30:49;;;;;;;0.50;0.20;;;22.20;28.70;;;;;;4976916;28;20419;-74
2021/04/09 06:33:15;;;;;;;0.73;0.22;;;22.20;28.60;;;;;;4977218;28;20045;-74
2021/04/09 06:35:40;;;;;;;1.80;0.82;;;22.30;28.50;;;;;;4977442;28;20026;-74
2021/04/09 06:38:06;;;;;;;0.20;0.10;;;22.20;28.60;;;;;;4976770;28;20054;-74
2021/04/09 06:40:32;;;;;;;0.20;0.17;;;22.20;28.50;;;;;;4976547;28;20066;-74
2021/04/09 06:42:59;;;;;;;0.73;0.60;;;22.30;28.60;;;;;;4995027;28;20114;-74
2021/04/09 06:45:25;;;;;;;0.15;0.15;;;22.30;29.10;;;;;;4976849;28;20034;-74
2021/04/09 06:47:52;;;;;;;0.25;0.22;;;22.30;28.70;;;;;;4994709;28;20039;-74
2021/04/09 06:50:18;;;;;;;1.42;0.70;;;22.30;28.70;;;;;;4977285;28;20081;-74
2021/04/09 06:52:50;;;;;;;0.38;0.10;;;22.30;28.70;;;;;;4976706;28;20046;-74
2021/04/09 06:55:19;;;;;;;0.20;0.20;;;22.30;28.70;;;;;;4988219;28;20494;-74
2021/04/09 06:57:44;;;;;;;0.10;0.10;;;22.30;28.70;;;;;;4980931;28;20768;-74
2021/04/09 07:00:16;;;;;;;0.15;0.15;;;22.20;28.60;;;;;;4976044;28;20042;-75
2021/04/09 07:02:43;;;;;;;0.45;0.32;;;22.20;28.70;;;;;;4993966;28;20462;-75
2021/04/09 07:05:09;;;;;;;0.80;0.55;;;22.20;28.80;;;;;;4977690;28;20057;-70
2021/04/09 07:07:35;;;;;;;0.47;0.30;;;22.20;28.70;;;;;;4979533;28;20030;-70
2021/04/09 07:10:00;;;;;;;0.47;0.40;;;22.30;28.70;;;;;;4992056;28;20037;-70
2021/04/09 07:12:27;;;;;;;2.17;0.75;;;22.30;28.70;;;;;;4977512;28;20041;-71
2021/04/09 07:15:03;;;;;;;1.50;0.63;;;22.30;28.70;;;;;;4976982;28;20030;-72
2021/04/09 07:17:37;;;;;;;0.45;0.45;;;22.30;28.40;;;;;;4976001;28;20076;-72
2021/04/09 07:20:28;;;;;;;0.88;0.60;;;22.30;28.90;;;;;;4988748;28;20105;-71
2021/04/09 07:22:55;;;;;;;2.28;0.60;;;22.30;28.50;;;;;;4976262;28;20026;-72
2021/04/09 07:25:37;;;;;;;0.80;0.75;;;22.30;28.50;;;;;;4976439;28;20115;-70
2021/04/09 07:28:23;;;;;;;1.17;0.43;;;22.30;28.50;;;;;;4993144;28;20030;-70
2021/04/09 07:30:53;;;;;;;0.65;0.32;;;22.40;28.40;;;;;;4973471;28;20023;-70
2021/04/09 07:33:23;;;;;;;0.10;0.10;;;22.30;28.40;;;;;;4993141;28;20089;-71
2021/04/09 07:35:54;;;;;;;0.45;0.35;;;22.40;28.40;;;;;;4978641;28;20459;-70
2021/04/09 07:38:24;;;;;;;0.03;0.03;;;22.40;28.60;;;;;;4976502;28;20046;-70
2021/04/09 07:40:58;;;;;;;0.35;0.30;;;22.40;28.40;;;;;;4976248;28;20049;-70
2021/04/09 07:43:24;;;;;;;1.55;0.50;;;22.40;28.30;;;;;;4994036;28;20081;-70
2021/04/09 07:45:54;;;;;;;0.20;0.20;;;22.40;28.40;;;;;;4993668;28;20022;-70
2021/04/09 07:48:42;;;;;;;1.13;0.40;;;22.40;28.30;;;;;;4991981;28;20486;-70
2021/04/09 07:51:07;;;;;;;0.98;0.50;;;22.40;28.50;;;;;;4993528;28;20057;-70
2021/04/09 07:53:33;;;;;;;1.27;0.40;;;22.40;28.40;;;;;;4993136;28;20471;-70
2021/04/09 07:56:02;;;;;;;0.40;0.40;;;22.40;28.50;;;;;;4993497;28;20478;-70
2021/04/09 07:58:27;;;;;;;4.65;0.82;;;22.40;28.30;;;;;;4976175;28;20038;-70
2021/04/09 08:00:53;;;;;;;0.93;0.47;;;22.40;28.40;;;;;;4974749;28;20058;-70
2021/04/09 08:03:38;;;;;;;1.20;0.60;;;22.40;28.40;;;;;;4956128;28;20418;-70
2021/04/09 08:06:03;;;;;;;3.33;1.15;;;22.40;28.40;;;;;;4965644;28;20410;-70
2021/04/09 08:08:29;;;;;;;1.77;0.52;;;22.40;28.50;;;;;;4992881;28;20036;-70
2021/04/09 08:11:26;;;;;;;0.60;0.32;;;22.40;28.30;;;;;;4993386;28;20085;-70
2021/04/09 08:14:33;;;;;;;0.98;0.65;;;22.40;28.60;;;;;;4993321;28;20498;-70
2021/04/09 08:17:07;;;;;;;;;;;22.40;28.50;;;;;;4896312;29;20116;-75
2021/04/09 08:19:33;;;;;;;0.57;0.30;;;22.40;28.60;;;;;;4878971;29;20422;-75
2021/04/09 08:21:59;;;;;;;0.20;0.20;;;22.40;28.60;;;;;;4879140;29;20101;-75
2021/04/09 08:24:28;;;;;;;2.50;0.50;;;22.40;28.50;;;;;;4895488;29;20029;-75
2021/04/09 08:26:53;;;;;;;0.98;0.32;;;22.40;28.60;;;;;;4879720;29;20041;-75
2021/04/09 08:29:19;;;;;;;0.80;0.38;;;22.40;28.70;;;;;;4894687;29;20125;-74
2021/04/09 08:31:45;;;;;;;0.85;0.68;;;22.40;28.60;;;;;;4894819;29;20424;-75
2021/04/09 08:34:12;;;;;;;3.13;0.68;;;22.40;28.70;;;;;;4879947;29;20048;-75
2021/04/09 08:36:38;;;;;;;0.50;0.30;;;22.40;28.70;;;;;;4888854;29;20044;-75
2021/04/09 08:39:05;;;;;;;0.43;0.43;;;22.40;28.70;;;;;;4880387;29;20067;-76
2021/04/09 08:41:31;;;;;;;0.80;0.35;;;22.40;28.60;;;;;;4895355;29;20575;-75
2021/04/09 08:43:57;;;;;;;0.43;0.43;;;22.40;28.70;;;;;;4886153;29;20020;-75
2021/04/09 08:46:22;;;;;;;0.50;0.38;;;22.40;28.80;;;;;;4883205;29;20041;-75
2021/04/09 08:48:48;;;;;;;2.00;0.73;;;22.40;28.60;;;;;;4879701;29;20032;-75
2021/04/09 08:51:14;;;;;;;0.10;0.10;;;22.40;28.70;;;;;;4860339;29;20037;-75
2021/04/09 08:53:40;;;;;;;1.67;0.60;;;22.40;28.70;;;;;;4948927;28;20050;-75
2021/04/09 08:56:06;;;;;;;0.15;0.15;;;22.40;28.80;;;;;;4974729;28;20050;-75
2021/04/09 08:58:42;;;;;;;4.25;0.80;;;22.40;29.10;;;;;;4975580;28;20054;-75
2021/04/09 09:01:12;;;;;;;0.47;0.45;;;22.40;28.70;;;;;;4973818;28;20045;-75
2021/04/09 09:03:38;;;;;;;0.13;0.13;;;22.40;28.60;;;;;;4971240;28;20022;-75
2021/04/09 09:06:05;;;;;;;0.65;0.30;;;22.50;28.50;;;;;;4982792;28;20529;-75
2021/04/09 09:08:46;;;;;;;0.20;0.20;;;22.60;28.40;;;;;;5007608;28;20022;-74
2021/04/09 09:11:12;;;;;;;0.63;0.50;;;22.60;28.50;;;;;;5012069;28;20037;-75
2021/04/09 09:13:42;;;;;;;0.32;0.30;;;22.60;28.50;;;;;;4974793;28;20026;-75
2021/04/09 09:16:15;;;;;;;0.32;0.32;;;22.60;29.00;;;;;;4996146;28;20564;-75
2021/04/09 09:18:48;;;;;;;1.02;0.55;;;22.70;28.50;;;;;;4979495;28;20031;-75
2021/04/09 09:21:14;;;;;;;2.42;0.45;;;22.70;28.40;;;;;;4979437;28;20034;-75
2021/04/09 09:23:49;;;;;;;0.30;0.30;;;22.80;28.40;;;;;;4996149;28;20533;-75
2021/04/09 09:26:33;;;;;;;;;;;22.80;28.40;;;;;;4994628;28;20030;-75
2021/04/09 09:29:17;;;;;;;1.05;0.30;;;22.80;28.40;;;;;;4995487;28;20383;-75
2021/04/09 09:31:48;;;;;;;3.33;1.13;;;22.80;28.30;;;;;;4995442;28;20022;-75
2021/04/09 09:34:17;;;;;;;1.02;0.93;;;22.90;28.20;;;;;;4996346;28;20038;-75
2021/04/09 09:37:00;;;;;;;0.30;0.30;;;22.90;28.00;;;;;;4995355;28;20530;-75
2021/04/09 09:39:38;;;;;;;0.75;0.28;;;23.00;28.20;;;;;;4995441;28;20502;-75
2021/04/09 09:42:14;;;;;;;1.10;0.70;;;23.00;28.20;;;;;;4994623;28;20053;-75
2021/04/09 09:44:40;;;;;;;6.82;1.00;;;23.00;28.20;;;;;;4967576;28;20125;-75
2021/04/09 09:47:18;;;;;;;1.48;0.60;;;23.10;28.20;;;;;;4995710;28;20101;-75
2021/04/09 09:50:06;;;;;;;2.10;0.77;;;23.20;28.10;;;;;;4996185;28;20030;-75
2021/04/09 09:52:48;;;;;;;0.73;0.73;;;23.20;28.10;;;;;;4991730;28;20029;-75
2021/04/09 09:55:19;;;;;;;1.35;0.95;;;23.20;28.00;;;;;;4978351;28;20037;-74
2021/04/09 09:57:47;;;;;;;1.10;0.85;;;23.30;28.00;;;;;;4979888;28;20038;-75
2021/04/09 10:00:13;;;;;;;0.15;0.15;;;23.40;28.00;;;;;;4965720;28;20395;-75
2021/04/09 10:02:39;;;;;;;0.85;0.43;;;23.40;28.00;;;;;;4992956;28;20410;-75
2021/04/09 10:05:05;;;;;;;1.80;0.98;;;23.50;27.80;;;;;;4994114;28;20050;-75
2021/04/09 10:07:31;;;;;;;1.58;0.80;;;23.50;27.90;;;;;;4961482;28;20035;-75
2021/04/09 10:09:56;;;;;;;5.10;0.60;;;23.60;27.80;;;;;;4977277;28;20030;-75
2021/04/09 10:12:22;;;;;;;2.88;0.60;;;23.70;27.70;;;;;;4994822;28;20026;-75
2021/04/09 10:14:49;;;;;;;0.17;0.17;;;23.80;27.70;;;;;;4978436;28;20034;-75
2021/04/09 10:17:14;;;;;;;0.98;0.73;;;23.90;27.60;;;;;;4959599;28;20514;-76
2021/04/09 10:19:59;;;;;;;0.82;0.70;;;24.00;27.50;;;;;;5013171;28;20121;-76
2021/04/09 10:22:24;;;;;;;1.75;0.73;;;24.10;27.50;;;;;;4960496;28;20045;-76
2021/04/09 10:24:50;;;;;;;3.83;1.67;;;24.20;27.30;;;;;;5009697;28;20027;-76
2021/04/09 10:27:15;;;;;;;1.55;1.02;;;24.30;27.20;;;;;;4975853;28;20037;-75
2021/04/09 10:29:41;;;;;;;0.77;0.63;;;24.30;27.10;;;;;;4996907;28;20434;-75
2021/04/09 10:32:20;;;;;;;1.38;0.90;;;24.30;27.10;;;;;;4954649;28;20046;-75
2021/04/09 10:34:49;;;;;;;4.90;1.70;;;24.40;27.00;;;;;;4964475;28;20046;-75
2021/04/09 10:37:24;;;;;;;0.55;0.55;;;24.40;26.90;;;;;;5009332;28;20494;-75
2021/04/09 10:39:51;;;;;;;1.92;0.60;;;24.50;26.90;;;;;;4991078;28;20045;-75
2021/04/09 10:42:17;;;;;;;2.08;0.77;;;24.50;26.80;;;;;;4976340;28;20065;-75
2021/04/09 10:44:43;;;;;;;1.10;0.88;;;24.60;26.90;;;;;;4976996;28;20069;-74
2021/04/09 10:47:09;;;;;;;0.40;0.32;;;24.50;26.90;;;;;;4995189;28;20027;-74
2021/04/09 10:49:35;;;;;;;1.65;0.80;;;24.50;26.80;;;;;;4977064;28;20113;-74
2021/04/09 10:52:12;;;;;;;0.90;0.68;;;24.60;26.90;;;;;;4995464;28;20457;-74
2021/04/09 10:54:39;;;;;;;2.72;0.63;;;24.50;27.30;;;;;;4986160;28;20030;-74
2021/04/09 10:57:09;;;;;;;3.47;0.50;;;24.60;26.90;;;;;;4994806;28;20077;-74
2021/04/09 10:59:45;;;;;;;1.40;0.70;;;24.60;26.90;;;;;;4976309;28;20050;-70
2021/04/09 11:02:18;;;;;;;0.43;0.30;;;24.60;26.90;;;;;;4976265;28;20061;-70
2021/04/09 11:04:49;;;;;;;1.30;1.20;;;24.60;26.90;;;;;;4959013;28;20065;-70
2021/04/09 11:07:14;;;;;;;1.85;1.10;;;24.60;26.90;;;;;;4976857;28;20038;-69
2021/04/09 11:09:45;;;;;;;1.55;0.50;;;24.60;26.60;;;;;;4994493;28;20085;-70
2021/04/09 11:12:21;;;;;;;0.35;0.30;;;24.60;26.90;;;;;;4974031;28;20050;-69
2021/04/09 11:14:51;;;;;;;1.30;0.88;;;24.60;26.60;;;;;;4976451;28;20042;-70
2021/04/09 11:17:26;;;;;;;0.08;0.08;;;24.60;26.70;;;;;;4976699;28;20113;-69
2021/04/09 11:19:55;;;;;;;1.55;0.70;;;24.60;26.80;;;;;;4984657;28;20505;-69
2021/04/09 11:22:21;;;;;;;1.75;0.60;;;24.60;26.80;;;;;;4945897;28;20034;-69
2021/04/09 11:24:56;;;;;;;0.63;0.63;;;24.60;26.80;;;;;;4975570;28;20090;-70
2021/04/09 11:27:23;;;;;;;0.37;0.30;;;24.60;26.80;;;;;;5016610;28;20018;-70
2021/04/09 11:29:48;;;;;;;3.00;0.90;;;24.60;26.80;;;;;;4962160;28;20038;-70
2021/04/09 11:32:21;;;;;;;0.88;0.30;;;24.60;26.90;;;;;;4973880;28;20036;-69
2021/04/09 11:34:50;;;;;;;0.88;0.47;;;24.70;26.90;;;;;;4974073;28;20113;-70
2021/04/09 11:37:17;;;;;;;2.28;0.93;;;24.70;26.80;;;;;;4954356;28;20522;-69
2021/04/09 11:39:58;;;;;;;1.40;0.40;;;24.70;26.80;;;;;;4971244;28;20126;-69
2021/04/09 11:42:28;;;;;;;0.68;0.55;;;24.80;26.80;;;;;;4988014;28;20041;-69
2021/04/09 11:44:58;;;;;;;0.93;0.75;;;24.80;26.70;;;;;;4970602;28;20454;-69
2021/04/09 11:47:27;;;;;;;2.30;0.55;;;24.80;26.70;;;;;;4988547;28;20118;-69
2021/04/09 11:50:22;;;;;;;2.20;1.02;;;24.80;26.50;;;;;;4955984;28;20390;-69
2021/04/09 11:53:04;;;;;;;0.43;0.28;;;24.80;26.40;;;;;;4985395;28;20122;-69
2021/04/09 11:55:40;;;;;;;0.25;0.22;;;24.80;26.50;;;;;;4971413;28;20425;-69
2021/04/09 11:58:40;;;;;;;0.30;0.20;;;24.80;26.60;;;;;;4975322;28;20030;-69
2021/04/09 12:01:06;;;;;;;0.22;0.22;;;24.90;26.70;;;;;;4978826;28;20042;-74
2021/04/09 12:03:41;;;;;;;0.38;0.38;;;24.90;26.70;;;;;;4989967;28;20137;-70
2021/04/09 12:06:17;;;;;;;0.15;0.15;;;24.90;26.70;;;;;;4974244;28;20033;-69
2021/04/09 12:08:43;;;;;;;;;;;24.90;26.70;;;;;;4993222;28;20410;-70
2021/04/09 12:11:08;;;;;;;0.28;0.28;;;24.90;26.60;;;;;;4993536;28;19917;-70
2021/04/09 12:13:44;;;;;;;0.90;0.68;;;24.90;26.70;;;;;;4990737;28;20045;-69
2021/04/09 12:16:10;;;;;;;2.97;0.80;;;24.90;26.70;;;;;;4975868;28;20030;-70
2021/04/09 12:18:35;;;;;;;2.15;0.57;;;24.90;26.70;;;;;;4975409;28;20030;-69
2021/04/09 12:21:01;;;;;;;1.27;0.70;;;24.90;26.70;;;;;;4992983;28;20031;-70
2021/04/09 12:23:27;;;;;;;3.30;0.73;;;24.90;26.80;;;;;;4974790;28;20060;-70
2021/04/09 12:25:59;;;;;;;0.75;0.55;;;24.90;26.70;;;;;;4975640;28;20490;-70
2021/04/09 12:28:24;;;;;;;0.38;0.30;;;24.90;26.70;;;;;;4958337;28;20030;-70
2021/04/09 12:30:51;;;;;;;0.52;0.50;;;25.00;26.70;;;;;;4975037;28;20046;-70
2021/04/09 12:33:17;;;;;;;0.85;0.52;;;25.00;26.60;;;;;;4976011;28;20058;-70
2021/04/09 12:35:43;;;;;;;0.95;0.30;;;25.10;26.60;;;;;;4992490;28;20037;-70
2021/04/09 12:38:08;;;;;;;0.75;0.60;;;25.10;26.60;;;;;;4992463;28;20042;-71
2021/04/09 12:40:34;;;;;;;0.55;0.10;;;25.20;26.60;;;;;;4993286;28;20533;-71
2021/04/09 12:43:00;;;;;;;3.00;0.52;;;25.20;26.50;;;;;;4975162;28;20406;-71
2021/04/09 12:45:25;;;;;;;0.15;0.13;;;25.20;26.50;;;;;;4978143;28;20027;-70
2021/04/09 12:47:51;;;;;;;0.70;0.45;;;25.20;26.50;;;;;;4999410;28;20101;-70
2021/04/09 12:50:16;;;;;;;0.15;0.15;;;25.20;26.50;;;;;;4994036;28;20483;-70
2021/04/09 12:52:42;;;;;;;0.40;0.10;;;25.20;26.50;;;;;;4980967;28;20026;-70
2021/04/09 12:55:08;;;;;;;0.30;0.30;;;25.10;26.40;;;;;;4981729;28;20096;-70
2021/04/09 12:57:34;;;;;;;14.55;0.68;;;25.10;26.50;;;;;;4998059;28;20026;-70